sensor_id;sensor_type;location;lat;lon;timestamp;P1;durP1;ratioP1;P2;durP2;ratioP2
5811;SDS011;2932;52.400;9.558;2023-03-23T00:00:51;3.73;;;1.50;;
5811;SDS011;2932;52.400;9.558;2023-03-23T00:03:16;5.17;;;1.80;;
5811;SDS011;2932;52.400;9.558;2023-03-23T00:05:42;4.00;;;1.87;;
5811;SDS011;2932;52.400;9.558;2023-03-23T00:08:15;3.93;;;1.50;;
5811;SDS011;2932;52.400;9.558;2023-03-23T00:10:41;2.67;;;1.77;;
5811;SDS011;2932;52.400;9.558;2023-03-23T00:13:06;3.90;;;1.80;;
5811;SDS011;2932;52.400;9.558;2023-03-23T00:15:31;3.33;;;1.57;;
5811;SDS011;2932;52.400;9.558;2023-03-23T00:17:58;5.53;;;1.77;;
5811;SDS011;2932;52.400;9.558;2023-03-23T00:20:29;3.30;;;1.87;;
5811;SDS011;2932;52.400;9.558;2023-03-23T00:22:55;2.87;;;1.83;;
5811;SDS011;2932;52.400;9.558;2023-03-23T00:25:25;2.00;;;1.80;;
5811;SDS011;2932;52.400;9.558;2023-03-23T00:27:50;4.17;;;1.97;;
5811;SDS011;2932;52.400;9.558;2023-03-23T00:30:16;2.73;;;2.00;;
5811;SDS011;2932;52.400;9.558;2023-03-23T00:32:42;2.80;;;1.80;;
5811;SDS011;2932;52.400;9.558;2023-03-23T00:35:08;3.57;;;2.20;;
5811;SDS011;2932;52.400;9.558;2023-03-23T00:37:33;5.00;;;2.03;;
5811;SDS011;2932;52.400;9.558;2023-03-23T00:40:00;5.00;;;2.10;;
5811;SDS011;2932;52.400;9.558;2023-03-23T00:42:30;4.53;;;1.90;;
5811;SDS011;2932;52.400;9.558;2023-03-23T00:45:01;5.57;;;2.13;;
5811;SDS011;2932;52.400;9.558;2023-03-23T00:47:27;3.40;;;1.80;;
5811;SDS011;2932;52.400;9.558;2023-03-23T00:49:53;3.53;;;2.10;;
5811;SDS011;2932;52.400;9.558;2023-03-23T00:52:20;4.43;;;2.50;;
5811;SDS011;2932;52.400;9.558;2023-03-23T00:54:46;2.63;;;1.90;;
5811;SDS011;2932;52.400;9.558;2023-03-23T00:57:11;4.13;;;2.10;;
5811;SDS011;2932;52.400;9.558;2023-03-23T00:59:37;2.27;;;1.47;;
5811;SDS011;2932;52.400;9.558;2023-03-23T01:02:02;2.60;;;1.80;;
5811;SDS011;2932;52.400;9.558;2023-03-23T01:04:27;4.03;;;1.97;;
5811;SDS011;2932;52.400;9.558;2023-03-23T01:06:53;5.93;;;2.10;;
5811;SDS011;2932;52.400;9.558;2023-03-23T01:09:19;6.17;;;2.63;;
5811;SDS011;2932;52.400;9.558;2023-03-23T01:11:46;3.97;;;1.90;;
5811;SDS011;2932;52.400;9.558;2023-03-23T01:14:14;4.57;;;2.30;;
5811;SDS011;2932;52.400;9.558;2023-03-23T01:16:42;4.37;;;2.17;;
5811;SDS011;2932;52.400;9.558;2023-03-23T01:19:07;2.27;;;2.00;;
5811;SDS011;2932;52.400;9.558;2023-03-23T01:21:33;4.67;;;2.10;;
5811;SDS011;2932;52.400;9.558;2023-03-23T01:23:58;4.87;;;2.30;;
5811;SDS011;2932;52.400;9.558;2023-03-23T01:26:24;4.13;;;2.20;;
5811;SDS011;2932;52.400;9.558;2023-03-23T01:28:51;2.47;;;2.27;;
5811;SDS011;2932;52.400;9.558;2023-03-23T01:31:18;5.20;;;2.53;;
5811;SDS011;2932;52.400;9.558;2023-03-23T01:33:45;4.53;;;2.10;;
5811;SDS011;2932;52.400;9.558;2023-03-23T01:36:19;5.07;;;2.37;;
5811;SDS011;2932;52.400;9.558;2023-03-23T01:38:46;5.20;;;2.43;;
5811;SDS011;2932;52.400;9.558;2023-03-23T01:41:13;2.97;;;2.23;;
5811;SDS011;2932;52.400;9.558;2023-03-23T01:46:41;5.33;;;2.03;;
5811;SDS011;2932;52.400;9.558;2023-03-23T01:49:08;4.80;;;2.30;;
5811;SDS011;2932;52.400;9.558;2023-03-23T01:51:59;3.17;;;2.30;;
5811;SDS011;2932;52.400;9.558;2023-03-23T01:54:26;2.57;;;1.93;;
5811;SDS011;2932;52.400;9.558;2023-03-23T01:56:59;3.23;;;2.00;;
5811;SDS011;2932;52.400;9.558;2023-03-23T01:59:28;5.87;;;2.30;;
5811;SDS011;2932;52.400;9.558;2023-03-23T02:01:55;4.90;;;2.00;;
5811;SDS011;2932;52.400;9.558;2023-03-23T02:04:20;4.17;;;1.93;;
5811;SDS011;2932;52.400;9.558;2023-03-23T02:06:48;2.57;;;2.03;;
5811;SDS011;2932;52.400;9.558;2023-03-23T02:09:13;3.23;;;1.90;;
5811;SDS011;2932;52.400;9.558;2023-03-23T02:11:42;4.57;;;2.00;;
5811;SDS011;2932;52.400;9.558;2023-03-23T02:14:07;3.83;;;2.10;;
5811;SDS011;2932;52.400;9.558;2023-03-23T02:27:11;2.80;;;1.53;;
5811;SDS011;2932;52.400;9.558;2023-03-23T02:32:19;4.90;;;2.30;;
5811;SDS011;2932;52.400;9.558;2023-03-23T02:35:52;2.97;;;1.83;;
5811;SDS011;2932;52.400;9.558;2023-03-23T02:38:11;3.80;;;1.87;;
5811;SDS011;2932;52.400;9.558;2023-03-23T02:40:41;3.00;;;2.00;;
5811;SDS011;2932;52.400;9.558;2023-03-23T02:43:11;3.97;;;1.87;;
5811;SDS011;2932;52.400;9.558;2023-03-23T02:45:39;4.20;;;1.90;;
5811;SDS011;2932;52.400;9.558;2023-03-23T02:48:07;2.70;;;1.60;;
5811;SDS011;2932;52.400;9.558;2023-03-23T02:50:35;4.30;;;2.10;;
5811;SDS011;2932;52.400;9.558;2023-03-23T02:53:05;3.30;;;2.13;;
5811;SDS011;2932;52.400;9.558;2023-03-23T02:55:33;3.83;;;1.97;;
5811;SDS011;2932;52.400;9.558;2023-03-23T02:58:05;2.60;;;1.70;;
5811;SDS011;2932;52.400;9.558;2023-03-23T03:00:30;4.77;;;2.20;;
5811;SDS011;2932;52.400;9.558;2023-03-23T03:02:56;2.43;;;2.23;;
5811;SDS011;2932;52.400;9.558;2023-03-23T03:08:37;4.07;;;2.07;;
5811;SDS011;2932;52.400;9.558;2023-03-23T03:19:12;3.37;;;1.93;;
5811;SDS011;2932;52.400;9.558;2023-03-23T03:21:41;2.53;;;1.83;;
5811;SDS011;2932;52.400;9.558;2023-03-23T03:24:09;3.33;;;1.70;;
5811;SDS011;2932;52.400;9.558;2023-03-23T03:26:40;2.40;;;1.80;;
5811;SDS011;2932;52.400;9.558;2023-03-23T03:29:10;2.57;;;1.93;;
5811;SDS011;2932;52.400;9.558;2023-03-23T03:31:38;4.30;;;1.80;;
5811;SDS011;2932;52.400;9.558;2023-03-23T03:34:10;3.13;;;1.90;;
5811;SDS011;2932;52.400;9.558;2023-03-23T03:36:36;2.63;;;1.80;;
5811;SDS011;2932;52.400;9.558;2023-03-23T03:39:06;2.47;;;2.17;;
5811;SDS011;2932;52.400;9.558;2023-03-23T03:41:34;4.43;;;1.77;;
5811;SDS011;2932;52.400;9.558;2023-03-23T03:44:01;4.47;;;1.90;;
5811;SDS011;2932;52.400;9.558;2023-03-23T03:46:27;3.67;;;1.73;;
5811;SDS011;2932;52.400;9.558;2023-03-23T03:48:54;4.37;;;1.70;;
5811;SDS011;2932;52.400;9.558;2023-03-23T03:51:21;2.60;;;1.53;;
5811;SDS011;2932;52.400;9.558;2023-03-23T03:53:47;3.37;;;1.43;;
5811;SDS011;2932;52.400;9.558;2023-03-23T03:56:12;1.70;;;1.33;;
5811;SDS011;2932;52.400;9.558;2023-03-23T03:58:38;2.37;;;1.67;;
5811;SDS011;2932;52.400;9.558;2023-03-23T04:01:04;2.70;;;1.67;;
5811;SDS011;2932;52.400;9.558;2023-03-23T04:03:29;2.93;;;1.60;;
5811;SDS011;2932;52.400;9.558;2023-03-23T04:05:55;1.87;;;1.30;;
5811;SDS011;2932;52.400;9.558;2023-03-23T04:08:24;2.57;;;1.33;;
5811;SDS011;2932;52.400;9.558;2023-03-23T04:10:56;1.90;;;1.40;;
5811;SDS011;2932;52.400;9.558;2023-03-23T04:13:40;1.47;;;1.30;;
5811;SDS011;2932;52.400;9.558;2023-03-23T04:16:07;2.83;;;1.50;;
5811;SDS011;2932;52.400;9.558;2023-03-23T04:18:36;2.47;;;1.07;;
5811;SDS011;2932;52.400;9.558;2023-03-23T04:21:01;2.40;;;1.40;;
5811;SDS011;2932;52.400;9.558;2023-03-23T04:23:33;2.13;;;1.30;;
5811;SDS011;2932;52.400;9.558;2023-03-23T04:26:00;2.97;;;1.50;;
5811;SDS011;2932;52.400;9.558;2023-03-23T04:28:31;1.60;;;1.40;;
5811;SDS011;2932;52.400;9.558;2023-03-23T04:30:58;3.07;;;1.30;;
5811;SDS011;2932;52.400;9.558;2023-03-23T04:33:26;3.07;;;1.43;;
5811;SDS011;2932;52.400;9.558;2023-03-23T04:35:54;1.77;;;0.90;;
5811;SDS011;2932;52.400;9.558;2023-03-23T04:38:25;1.93;;;1.10;;
5811;SDS011;2932;52.400;9.558;2023-03-23T04:40:52;3.07;;;1.40;;
5811;SDS011;2932;52.400;9.558;2023-03-23T04:43:21;1.40;;;1.30;;
5811;SDS011;2932;52.400;9.558;2023-03-23T04:45:52;1.57;;;1.13;;
5811;SDS011;2932;52.400;9.558;2023-03-23T04:48:21;2.80;;;1.00;;
5811;SDS011;2932;52.400;9.558;2023-03-23T04:50:51;3.97;;;1.40;;
5811;SDS011;2932;52.400;9.558;2023-03-23T04:53:20;1.40;;;1.17;;
5811;SDS011;2932;52.400;9.558;2023-03-23T04:56:11;1.63;;;1.20;;
5811;SDS011;2932;52.400;9.558;2023-03-23T04:58:39;1.83;;;1.20;;
5811;SDS011;2932;52.400;9.558;2023-03-23T05:01:05;3.17;;;1.27;;
5811;SDS011;2932;52.400;9.558;2023-03-23T05:03:31;1.70;;;1.20;;
5811;SDS011;2932;52.400;9.558;2023-03-23T05:06:01;1.30;;;1.10;;
5811;SDS011;2932;52.400;9.558;2023-03-23T05:08:27;4.83;;;2.03;;
5811;SDS011;2932;52.400;9.558;2023-03-23T05:10:56;3.57;;;1.53;;
5811;SDS011;2932;52.400;9.558;2023-03-23T05:13:26;2.47;;;1.33;;
5811;SDS011;2932;52.400;9.558;2023-03-23T05:15:52;1.83;;;1.20;;
5811;SDS011;2932;52.400;9.558;2023-03-23T05:18:18;2.73;;;1.50;;
5811;SDS011;2932;52.400;9.558;2023-03-23T05:20:47;1.40;;;1.30;;
5811;SDS011;2932;52.400;9.558;2023-03-23T05:23:13;2.20;;;1.20;;
5811;SDS011;2932;52.400;9.558;2023-03-23T05:25:42;1.47;;;1.20;;
5811;SDS011;2932;52.400;9.558;2023-03-23T05:28:08;1.30;;;1.07;;
5811;SDS011;2932;52.400;9.558;2023-03-23T05:30:37;2.43;;;1.17;;
5811;SDS011;2932;52.400;9.558;2023-03-23T05:33:03;3.30;;;1.10;;
5811;SDS011;2932;52.400;9.558;2023-03-23T05:35:34;0.90;;;0.90;;
5811;SDS011;2932;52.400;9.558;2023-03-23T05:38:05;1.73;;;1.10;;
5811;SDS011;2932;52.400;9.558;2023-03-23T05:40:31;1.13;;;1.03;;
5811;SDS011;2932;52.400;9.558;2023-03-23T05:42:58;2.03;;;1.20;;
5811;SDS011;2932;52.400;9.558;2023-03-23T05:45:24;2.40;;;1.13;;
5811;SDS011;2932;52.400;9.558;2023-03-23T05:47:51;2.30;;;0.93;;
5811;SDS011;2932;52.400;9.558;2023-03-23T05:50:16;1.73;;;0.80;;
5811;SDS011;2932;52.400;9.558;2023-03-23T05:52:42;0.90;;;0.90;;
5811;SDS011;2932;52.400;9.558;2023-03-23T05:55:08;2.90;;;1.17;;
5811;SDS011;2932;52.400;9.558;2023-03-23T05:57:34;1.80;;;0.80;;
5811;SDS011;2932;52.400;9.558;2023-03-23T05:59:59;1.53;;;0.83;;
5811;SDS011;2932;52.400;9.558;2023-03-23T06:02:30;2.80;;;0.83;;
5811;SDS011;2932;52.400;9.558;2023-03-23T06:04:56;1.80;;;0.83;;
5811;SDS011;2932;52.400;9.558;2023-03-23T06:07:24;1.87;;;1.00;;
5811;SDS011;2932;52.400;9.558;2023-03-23T06:09:50;1.27;;;1.00;;
5811;SDS011;2932;52.400;9.558;2023-03-23T06:12:16;1.10;;;1.00;;
5811;SDS011;2932;52.400;9.558;2023-03-23T06:14:45;2.03;;;0.87;;
5811;SDS011;2932;52.400;9.558;2023-03-23T06:17:11;1.00;;;0.83;;
5811;SDS011;2932;52.400;9.558;2023-03-23T06:19:37;1.90;;;0.73;;
5811;SDS011;2932;52.400;9.558;2023-03-23T06:22:04;2.33;;;0.80;;
5811;SDS011;2932;52.400;9.558;2023-03-23T06:24:30;1.13;;;0.77;;
5811;SDS011;2932;52.400;9.558;2023-03-23T06:26:59;1.43;;;0.80;;
5811;SDS011;2932;52.400;9.558;2023-03-23T06:29:24;0.87;;;0.77;;
5811;SDS011;2932;52.400;9.558;2023-03-23T06:31:54;0.80;;;0.80;;
5811;SDS011;2932;52.400;9.558;2023-03-23T06:34:23;1.20;;;0.80;;
5811;SDS011;2932;52.400;9.558;2023-03-23T06:36:49;1.37;;;0.90;;
5811;SDS011;2932;52.400;9.558;2023-03-23T06:39:15;0.93;;;0.70;;
5811;SDS011;2932;52.400;9.558;2023-03-23T06:41:40;0.70;;;0.70;;
5811;SDS011;2932;52.400;9.558;2023-03-23T06:44:06;1.57;;;1.00;;
5811;SDS011;2932;52.400;9.558;2023-03-23T06:46:31;0.77;;;0.70;;
5811;SDS011;2932;52.400;9.558;2023-03-23T06:48:57;1.10;;;1.00;;
5811;SDS011;2932;52.400;9.558;2023-03-23T06:51:22;1.07;;;0.97;;
5811;SDS011;2932;52.400;9.558;2023-03-23T06:53:48;1.10;;;0.90;;
5811;SDS011;2932;52.400;9.558;2023-03-23T06:56:13;1.97;;;0.90;;
5811;SDS011;2932;52.400;9.558;2023-03-23T06:58:39;1.10;;;1.00;;
5811;SDS011;2932;52.400;9.558;2023-03-23T07:01:05;2.87;;;0.97;;
5811;SDS011;2932;52.400;9.558;2023-03-23T07:03:31;0.70;;;0.70;;
5811;SDS011;2932;52.400;9.558;2023-03-23T07:05:57;1.07;;;1.00;;
5811;SDS011;2932;52.400;9.558;2023-03-23T07:08:23;1.30;;;1.07;;
5811;SDS011;2932;52.400;9.558;2023-03-23T07:10:50;1.13;;;1.03;;
5811;SDS011;2932;52.400;9.558;2023-03-23T07:13:17;1.33;;;0.80;;
5811;SDS011;2932;52.400;9.558;2023-03-23T07:15:43;1.77;;;1.00;;
5811;SDS011;2932;52.400;9.558;2023-03-23T07:18:08;2.50;;;1.20;;
5811;SDS011;2932;52.400;9.558;2023-03-23T07:20:34;3.30;;;1.27;;
5811;SDS011;2932;52.400;9.558;2023-03-23T07:23:00;2.00;;;1.00;;
5811;SDS011;2932;52.400;9.558;2023-03-23T07:25:26;1.63;;;1.07;;
5811;SDS011;2932;52.400;9.558;2023-03-23T07:27:52;2.10;;;1.20;;
5811;SDS011;2932;52.400;9.558;2023-03-23T07:30:17;1.63;;;1.00;;
5811;SDS011;2932;52.400;9.558;2023-03-23T07:32:42;1.77;;;1.00;;
5811;SDS011;2932;52.400;9.558;2023-03-23T07:35:08;1.17;;;0.80;;
5811;SDS011;2932;52.400;9.558;2023-03-23T07:37:34;2.60;;;1.03;;
5811;SDS011;2932;52.400;9.558;2023-03-23T07:40:00;1.83;;;1.23;;
5811;SDS011;2932;52.400;9.558;2023-03-23T07:42:39;2.67;;;1.00;;
5811;SDS011;2932;52.400;9.558;2023-03-23T07:45:05;1.43;;;0.90;;
5811;SDS011;2932;52.400;9.558;2023-03-23T07:47:31;2.40;;;1.20;;
5811;SDS011;2932;52.400;9.558;2023-03-23T07:49:56;1.37;;;1.10;;
5811;SDS011;2932;52.400;9.558;2023-03-23T07:52:27;1.80;;;1.27;;
5811;SDS011;2932;52.400;9.558;2023-03-23T07:55:18;1.20;;;1.10;;
5811;SDS011;2932;52.400;9.558;2023-03-23T07:58:02;1.10;;;1.00;;
5811;SDS011;2932;52.400;9.558;2023-03-23T08:00:41;1.73;;;1.00;;
5811;SDS011;2932;52.400;9.558;2023-03-23T08:03:07;1.90;;;0.90;;
5811;SDS011;2932;52.400;9.558;2023-03-23T08:08:25;3.00;;;1.10;;
5811;SDS011;2932;52.400;9.558;2023-03-23T08:10:55;1.63;;;1.10;;
5811;SDS011;2932;52.400;9.558;2023-03-23T08:13:31;3.37;;;1.63;;
5811;SDS011;2932;52.400;9.558;2023-03-23T08:16:08;3.73;;;1.20;;
5811;SDS011;2932;52.400;9.558;2023-03-23T08:18:52;3.43;;;1.30;;
5811;SDS011;2932;52.400;9.558;2023-03-23T08:21:43;1.93;;;0.90;;
5811;SDS011;2932;52.400;9.558;2023-03-23T08:24:09;3.17;;;1.40;;
5811;SDS011;2932;52.400;9.558;2023-03-23T08:26:40;2.27;;;1.00;;
5811;SDS011;2932;52.400;9.558;2023-03-23T08:29:09;5.43;;;1.60;;
5811;SDS011;2932;52.400;9.558;2023-03-23T08:31:38;3.67;;;1.47;;
5811;SDS011;2932;52.400;9.558;2023-03-23T08:34:04;2.30;;;1.20;;
5811;SDS011;2932;52.400;9.558;2023-03-23T08:36:31;2.53;;;1.30;;
5811;SDS011;2932;52.400;9.558;2023-03-23T08:38:57;2.20;;;1.27;;
5811;SDS011;2932;52.400;9.558;2023-03-23T08:41:23;4.50;;;1.20;;
5811;SDS011;2932;52.400;9.558;2023-03-23T08:43:48;2.30;;;1.27;;
5811;SDS011;2932;52.400;9.558;2023-03-23T08:46:14;1.80;;;1.17;;
5811;SDS011;2932;52.400;9.558;2023-03-23T08:48:40;1.37;;;1.27;;
5811;SDS011;2932;52.400;9.558;2023-03-23T08:51:05;2.23;;;1.20;;
5811;SDS011;2932;52.400;9.558;2023-03-23T08:53:32;2.60;;;1.40;;
5811;SDS011;2932;52.400;9.558;2023-03-23T08:56:08;1.93;;;1.60;;
5811;SDS011;2932;52.400;9.558;2023-03-23T08:58:36;1.73;;;1.13;;
5811;SDS011;2932;52.400;9.558;2023-03-23T09:01:02;3.17;;;1.57;;
5811;SDS011;2932;52.400;9.558;2023-03-23T09:03:30;2.73;;;1.40;;
5811;SDS011;2932;52.400;9.558;2023-03-23T09:06:02;5.20;;;1.50;;
5811;SDS011;2932;52.400;9.558;2023-03-23T09:08:30;4.00;;;1.30;;
5811;SDS011;2932;52.400;9.558;2023-03-23T09:10:59;4.07;;;1.50;;
5811;SDS011;2932;52.400;9.558;2023-03-23T09:13:25;3.30;;;2.03;;
5811;SDS011;2932;52.400;9.558;2023-03-23T09:15:51;5.10;;;1.57;;
5811;SDS011;2932;52.400;9.558;2023-03-23T09:18:17;2.13;;;1.20;;
5811;SDS011;2932;52.400;9.558;2023-03-23T09:20:43;4.50;;;1.70;;
5811;SDS011;2932;52.400;9.558;2023-03-23T09:23:09;4.80;;;1.33;;
5811;SDS011;2932;52.400;9.558;2023-03-23T09:25:35;3.23;;;1.50;;
5811;SDS011;2932;52.400;9.558;2023-03-23T09:28:01;2.33;;;1.30;;
5811;SDS011;2932;52.400;9.558;2023-03-23T09:30:28;5.07;;;1.30;;
5811;SDS011;2932;52.400;9.558;2023-03-23T09:32:56;6.70;;;1.50;;
5811;SDS011;2932;52.400;9.558;2023-03-23T09:35:22;5.07;;;1.67;;
5811;SDS011;2932;52.400;9.558;2023-03-23T09:37:48;3.60;;;1.57;;
5811;SDS011;2932;52.400;9.558;2023-03-23T09:40:16;4.03;;;1.30;;
5811;SDS011;2932;52.400;9.558;2023-03-23T09:50:33;4.40;;;2.23;;
5811;SDS011;2932;52.400;9.558;2023-03-23T09:53:15;3.10;;;2.00;;
5811;SDS011;2932;52.400;9.558;2023-03-23T09:55:46;3.57;;;1.40;;
5811;SDS011;2932;52.400;9.558;2023-03-23T09:58:18;5.17;;;1.37;;
5811;SDS011;2932;52.400;9.558;2023-03-23T10:03:37;2.50;;;1.30;;
5811;SDS011;2932;52.400;9.558;2023-03-23T10:06:07;1.67;;;1.00;;
5811;SDS011;2932;52.400;9.558;2023-03-23T10:08:39;4.93;;;1.50;;
5811;SDS011;2932;52.400;9.558;2023-03-23T10:16:26;2.33;;;1.33;;
5811;SDS011;2932;52.400;9.558;2023-03-23T10:21:29;4.30;;;1.57;;
5811;SDS011;2932;52.400;9.558;2023-03-23T10:24:00;5.60;;;1.80;;
5811;SDS011;2932;52.400;9.558;2023-03-23T10:29:31;2.70;;;1.37;;
5811;SDS011;2932;52.400;9.558;2023-03-23T10:32:15;3.20;;;1.70;;
5811;SDS011;2932;52.400;9.558;2023-03-23T10:34:47;3.63;;;1.40;;
5811;SDS011;2932;52.400;9.558;2023-03-23T10:37:31;4.47;;;1.53;;
5811;SDS011;2932;52.400;9.558;2023-03-23T10:40:02;4.03;;;1.73;;
5811;SDS011;2932;52.400;9.558;2023-03-23T10:42:35;4.80;;;1.30;;
5811;SDS011;2932;52.400;9.558;2023-03-23T10:45:36;5.17;;;1.63;;
5811;SDS011;2932;52.400;9.558;2023-03-23T10:50:32;4.20;;;1.50;;
5811;SDS011;2932;52.400;9.558;2023-03-23T10:53:00;9.40;;;3.20;;
5811;SDS011;2932;52.400;9.558;2023-03-23T10:55:38;4.13;;;1.60;;
5811;SDS011;2932;52.400;9.558;2023-03-23T10:58:07;6.23;;;1.40;;
5811;SDS011;2932;52.400;9.558;2023-03-23T11:00:42;6.40;;;1.83;;
5811;SDS011;2932;52.400;9.558;2023-03-23T11:05:42;6.00;;;1.67;;
5811;SDS011;2932;52.400;9.558;2023-03-23T11:08:21;5.13;;;1.57;;
5811;SDS011;2932;52.400;9.558;2023-03-23T11:11:37;3.85;;;1.50;;
5811;SDS011;2932;52.400;9.558;2023-03-23T11:13:47;3.97;;;1.48;;
5811;SDS011;2932;52.400;9.558;2023-03-23T11:18:59;3.58;;;1.48;;
5811;SDS011;2932;52.400;9.558;2023-03-23T11:21:36;3.50;;;1.67;;
5811;SDS011;2932;52.400;9.558;2023-03-23T11:24:03;4.00;;;1.60;;
5811;SDS011;2932;52.400;9.558;2023-03-23T11:26:31;3.73;;;1.63;;
5811;SDS011;2932;52.400;9.558;2023-03-23T11:29:15;6.00;;;1.50;;
5811;SDS011;2932;52.400;9.558;2023-03-23T11:31:47;4.87;;;1.40;;
5811;SDS011;2932;52.400;9.558;2023-03-23T11:34:31;3.73;;;1.60;;
5811;SDS011;2932;52.400;9.558;2023-03-23T11:37:09;4.70;;;1.60;;
5811;SDS011;2932;52.400;9.558;2023-03-23T11:39:57;4.50;;;1.67;;
5811;SDS011;2932;52.400;9.558;2023-03-23T11:42:25;6.40;;;1.40;;
5811;SDS011;2932;52.400;9.558;2023-03-23T11:45:21;3.43;;;1.53;;
5811;SDS011;2932;52.400;9.558;2023-03-23T11:47:53;3.27;;;1.37;;
5811;SDS011;2932;52.400;9.558;2023-03-23T11:50:24;5.17;;;1.70;;
5811;SDS011;2932;52.400;9.558;2023-03-23T11:55:22;6.30;;;1.83;;
5811;SDS011;2932;52.400;9.558;2023-03-23T11:57:54;6.83;;;2.30;;
5811;SDS011;2932;52.400;9.558;2023-03-23T12:00:21;3.33;;;2.07;;
5811;SDS011;2932;52.400;9.558;2023-03-23T12:05:43;4.07;;;1.93;;
5811;SDS011;2932;52.400;9.558;2023-03-23T12:21:37;3.90;;;1.07;;
5811;SDS011;2932;52.400;9.558;2023-03-23T12:27:27;2.77;;;1.20;;
5811;SDS011;2932;52.400;9.558;2023-03-23T12:35:59;2.57;;;0.93;;
5811;SDS011;2932;52.400;9.558;2023-03-23T12:43:58;3.93;;;0.80;;
5811;SDS011;2932;52.400;9.558;2023-03-23T12:49:00;1.60;;;0.77;;
5811;SDS011;2932;52.400;9.558;2023-03-23T12:51:40;2.67;;;0.70;;
5811;SDS011;2932;52.400;9.558;2023-03-23T12:54:20;1.77;;;0.70;;
5811;SDS011;2932;52.400;9.558;2023-03-23T12:56:49;1.60;;;0.60;;
5811;SDS011;2932;52.400;9.558;2023-03-23T13:02:31;1.70;;;0.77;;
5811;SDS011;2932;52.400;9.558;2023-03-23T13:05:03;0.97;;;0.40;;
5811;SDS011;2932;52.400;9.558;2023-03-23T13:07:44;1.07;;;0.63;;
5811;SDS011;2932;52.400;9.558;2023-03-23T13:10:28;2.47;;;0.50;;
5811;SDS011;2932;52.400;9.558;2023-03-23T13:12:58;0.70;;;0.60;;
5811;SDS011;2932;52.400;9.558;2023-03-23T13:24:14;0.53;;;0.40;;
5811;SDS011;2932;52.400;9.558;2023-03-23T13:26:42;0.50;;;0.50;;
5811;SDS011;2932;52.400;9.558;2023-03-23T13:31:39;1.87;;;0.40;;
5811;SDS011;2932;52.400;9.558;2023-03-23T13:34:11;2.73;;;0.50;;
5811;SDS011;2932;52.400;9.558;2023-03-23T13:36:43;0.30;;;0.30;;
5811;SDS011;2932;52.400;9.558;2023-03-23T13:39:21;2.27;;;0.70;;
5811;SDS011;2932;52.400;9.558;2023-03-23T13:44:27;2.77;;;0.40;;
5811;SDS011;2932;52.400;9.558;2023-03-23T13:47:06;2.10;;;0.50;;
5811;SDS011;2932;52.400;9.558;2023-03-23T13:50:02;2.80;;;0.50;;
5811;SDS011;2932;52.400;9.558;2023-03-23T14:02:51;1.40;;;0.40;;
5811;SDS011;2932;52.400;9.558;2023-03-23T14:07:52;2.03;;;0.43;;
5811;SDS011;2932;52.400;9.558;2023-03-23T14:10:19;1.20;;;0.40;;
5811;SDS011;2932;52.400;9.558;2023-03-23T14:12:44;0.63;;;0.50;;
5811;SDS011;2932;52.400;9.558;2023-03-23T14:15:12;1.30;;;0.40;;
5811;SDS011;2932;52.400;9.558;2023-03-23T14:17:43;0.47;;;0.40;;
5811;SDS011;2932;52.400;9.558;2023-03-23T14:20:17;1.27;;;0.73;;
5811;SDS011;2932;52.400;9.558;2023-03-23T14:23:05;3.37;;;0.67;;
5811;SDS011;2932;52.400;9.558;2023-03-23T14:25:30;0.57;;;0.40;;
5811;SDS011;2932;52.400;9.558;2023-03-23T14:27:59;1.47;;;0.47;;
5811;SDS011;2932;52.400;9.558;2023-03-23T14:30:27;0.83;;;0.40;;
5811;SDS011;2932;52.400;9.558;2023-03-23T14:33:04;1.47;;;0.43;;
5811;SDS011;2932;52.400;9.558;2023-03-23T14:35:34;0.97;;;0.40;;
5811;SDS011;2932;52.400;9.558;2023-03-23T14:38:02;1.73;;;0.57;;
5811;SDS011;2932;52.400;9.558;2023-03-23T14:40:28;0.87;;;0.60;;
5811;SDS011;2932;52.400;9.558;2023-03-23T14:42:55;0.70;;;0.50;;
5811;SDS011;2932;52.400;9.558;2023-03-23T14:45:22;0.83;;;0.50;;
5811;SDS011;2932;52.400;9.558;2023-03-23T14:47:54;1.17;;;0.53;;
5811;SDS011;2932;52.400;9.558;2023-03-23T14:50:36;1.70;;;0.70;;
5811;SDS011;2932;52.400;9.558;2023-03-23T14:53:47;2.10;;;0.67;;
5811;SDS011;2932;52.400;9.558;2023-03-23T14:55:54;1.10;;;0.70;;
5811;SDS011;2932;52.400;9.558;2023-03-23T14:58:23;1.43;;;0.67;;
5811;SDS011;2932;52.400;9.558;2023-03-23T15:00:58;0.57;;;0.50;;
5811;SDS011;2932;52.400;9.558;2023-03-23T15:03:27;2.17;;;0.50;;
5811;SDS011;2932;52.400;9.558;2023-03-23T15:05:58;1.07;;;0.60;;
5811;SDS011;2932;52.400;9.558;2023-03-23T15:08:29;0.90;;;0.53;;
5811;SDS011;2932;52.400;9.558;2023-03-23T15:13:35;1.37;;;0.70;;
5811;SDS011;2932;52.400;9.558;2023-03-23T15:16:03;2.03;;;0.87;;
5811;SDS011;2932;52.400;9.558;2023-03-23T15:18:36;0.70;;;0.67;;
5811;SDS011;2932;52.400;9.558;2023-03-23T15:21:10;1.03;;;0.73;;
5811;SDS011;2932;52.400;9.558;2023-03-23T15:23:44;0.63;;;0.50;;
5811;SDS011;2932;52.400;9.558;2023-03-23T15:26:25;1.47;;;1.00;;
5811;SDS011;2932;52.400;9.558;2023-03-23T15:28:58;0.73;;;0.50;;
5811;SDS011;2932;52.400;9.558;2023-03-23T15:31:26;0.80;;;0.80;;
5811;SDS011;2932;52.400;9.558;2023-03-23T15:33:54;0.83;;;0.60;;
5811;SDS011;2932;52.400;9.558;2023-03-23T15:36:24;0.77;;;0.63;;
5811;SDS011;2932;52.400;9.558;2023-03-23T15:38:49;2.37;;;0.90;;
5811;SDS011;2932;52.400;9.558;2023-03-23T15:41:22;0.77;;;0.60;;
5811;SDS011;2932;52.400;9.558;2023-03-23T15:43:54;0.80;;;0.70;;
5811;SDS011;2932;52.400;9.558;2023-03-23T15:46:25;4.27;;;0.80;;
5811;SDS011;2932;52.400;9.558;2023-03-23T15:48:53;1.87;;;0.80;;
5811;SDS011;2932;52.400;9.558;2023-03-23T15:51:33;1.83;;;0.90;;
5811;SDS011;2932;52.400;9.558;2023-03-23T15:53:59;1.53;;;0.70;;
5811;SDS011;2932;52.400;9.558;2023-03-23T15:56:24;2.40;;;0.77;;
5811;SDS011;2932;52.400;9.558;2023-03-23T15:58:50;1.67;;;0.80;;
5811;SDS011;2932;52.400;9.558;2023-03-23T16:01:18;1.03;;;0.90;;
5811;SDS011;2932;52.400;9.558;2023-03-23T16:03:48;1.23;;;0.70;;
5811;SDS011;2932;52.400;9.558;2023-03-23T16:06:17;1.10;;;0.90;;
5811;SDS011;2932;52.400;9.558;2023-03-23T16:08:45;1.50;;;0.83;;
5811;SDS011;2932;52.400;9.558;2023-03-23T16:11:14;1.03;;;0.70;;
5811;SDS011;2932;52.400;9.558;2023-03-23T16:13:42;2.57;;;0.83;;
5811;SDS011;2932;52.400;9.558;2023-03-23T16:16:13;1.33;;;0.70;;
5811;SDS011;2932;52.400;9.558;2023-03-23T16:18:43;1.90;;;0.63;;
5811;SDS011;2932;52.400;9.558;2023-03-23T16:21:08;1.87;;;0.87;;
5811;SDS011;2932;52.400;9.558;2023-03-23T16:23:34;3.03;;;1.00;;
5811;SDS011;2932;52.400;9.558;2023-03-23T16:26:00;0.70;;;0.70;;
5811;SDS011;2932;52.400;9.558;2023-03-23T16:28:25;2.23;;;0.80;;
5811;SDS011;2932;52.400;9.558;2023-03-23T16:30:50;1.83;;;1.07;;
5811;SDS011;2932;52.400;9.558;2023-03-23T16:33:16;3.57;;;1.10;;
5811;SDS011;2932;52.400;9.558;2023-03-23T16:35:41;1.20;;;0.70;;
5811;SDS011;2932;52.400;9.558;2023-03-23T16:38:09;1.07;;;0.80;;
5811;SDS011;2932;52.400;9.558;2023-03-23T16:40:40;4.13;;;1.13;;
5811;SDS011;2932;52.400;9.558;2023-03-23T16:43:07;4.32;;;0.90;;
5811;SDS011;2932;52.400;9.558;2023-03-23T16:45:32;1.57;;;0.93;;
5811;SDS011;2932;52.400;9.558;2023-03-23T16:47:58;2.25;;;1.10;;
5811;SDS011;2932;52.400;9.558;2023-03-23T16:50:25;1.67;;;1.00;;
5811;SDS011;2932;52.400;9.558;2023-03-23T16:52:52;2.80;;;1.20;;
5811;SDS011;2932;52.400;9.558;2023-03-23T16:55:18;3.97;;;1.07;;
5811;SDS011;2932;52.400;9.558;2023-03-23T16:57:43;3.10;;;1.00;;
5811;SDS011;2932;52.400;9.558;2023-03-23T17:00:13;4.40;;;1.30;;
5811;SDS011;2932;52.400;9.558;2023-03-23T17:02:40;2.63;;;0.90;;
5811;SDS011;2932;52.400;9.558;2023-03-23T17:05:07;2.87;;;1.00;;
5811;SDS011;2932;52.400;9.558;2023-03-23T17:07:39;2.00;;;1.17;;
5811;SDS011;2932;52.400;9.558;2023-03-23T17:10:06;3.87;;;1.43;;
5811;SDS011;2932;52.400;9.558;2023-03-23T17:12:33;2.03;;;1.20;;
5811;SDS011;2932;52.400;9.558;2023-03-23T17:14:59;3.67;;;1.17;;
5811;SDS011;2932;52.400;9.558;2023-03-23T17:17:25;1.70;;;0.97;;
5811;SDS011;2932;52.400;9.558;2023-03-23T17:19:51;5.17;;;1.40;;
5811;SDS011;2932;52.400;9.558;2023-03-23T17:22:17;2.27;;;1.33;;
5811;SDS011;2932;52.400;9.558;2023-03-23T17:24:43;5.13;;;1.90;;
5811;SDS011;2932;52.400;9.558;2023-03-23T17:27:11;3.43;;;1.90;;
5811;SDS011;2932;52.400;9.558;2023-03-23T17:29:37;2.77;;;1.50;;
5811;SDS011;2932;52.400;9.558;2023-03-23T17:32:03;2.63;;;1.47;;
5811;SDS011;2932;52.400;9.558;2023-03-23T17:34:28;3.63;;;2.30;;
5811;SDS011;2932;52.400;9.558;2023-03-23T17:36:54;3.47;;;1.70;;